createdAt,value
2022-12-11T08:31:40.960Z,65.57
2022-12-11T08:34:08.974Z,66.73
2022-12-11T08:36:36.998Z,67.10
2022-12-11T08:39:05.153Z,71.87
2022-12-11T08:41:33.205Z,70.37
2022-12-11T08:44:01.809Z,71.30
2022-12-11T08:46:31.886Z,79.73
2022-12-11T08:49:01.716Z,63.87
2022-12-11T08:51:30.957Z,63.67
2022-12-11T08:54:01.000Z,63.53
2022-12-11T08:56:30.609Z,59.83
2022-12-11T08:59:00.909Z,56.63
2022-12-11T09:01:29.582Z,63.50
2022-12-11T09:03:58.204Z,60.43
2022-12-11T09:06:29.315Z,58.37
2022-12-11T09:09:00.524Z,60.47
2022-12-11T09:11:31.262Z,56.47
2022-12-11T09:14:05.128Z,53.27
2022-12-11T09:16:40.375Z,60.70
2022-12-11T09:19:11.801Z,53.77
2022-12-11T09:21:41.825Z,54.63
2022-12-11T09:24:11.611Z,59.90
2022-12-11T09:26:40.083Z,59.67
2022-12-11T09:29:08.978Z,58.90
2022-12-11T09:31:38.130Z,61.00
2022-12-11T09:34:08.429Z,60.80
2022-12-11T09:36:39.072Z,64.30
2022-12-11T09:39:09.824Z,66.07
2022-12-11T09:41:47.863Z,70.87
2022-12-11T09:44:39.677Z,64.10
2022-12-11T09:47:21.399Z,59.57
2022-12-11T09:49:55.125Z,69.40
2022-12-11T09:52:30.110Z,65.83
2022-12-11T10:02:16.125Z,77.77
2022-12-11T10:04:55.218Z,81.90
2022-12-11T10:07:31.584Z,77.00
2022-12-11T10:10:04.468Z,73.67
2022-12-11T10:12:43.330Z,75.63
2022-12-11T10:15:24.865Z,71.97
2022-12-11T10:18:01.316Z,70.67
2022-12-11T10:20:36.474Z,78.67
2022-12-11T10:23:08.064Z,70.30
2022-12-11T10:25:38.621Z,73.50
2022-12-11T10:28:13.644Z,67.37
2022-12-11T10:30:47.868Z,70.00
2022-12-11T10:33:22.597Z,70.53
2022-12-11T10:35:53.508Z,69.57
2022-12-11T10:38:28.837Z,65.40
2022-12-11T10:40:59.526Z,72.07
2022-12-11T10:43:36.000Z,60.93
2022-12-11T10:46:05.257Z,67.00
2022-12-11T10:48:34.865Z,74.17
2022-12-11T10:51:05.999Z,78.20
2022-12-11T10:53:35.439Z,77.40
2022-12-11T10:56:04.116Z,70.97
2022-12-11T10:58:35.241Z,68.47
2022-12-11T11:01:10.478Z,67.30
2022-12-11T11:03:58.784Z,60.97
2022-12-11T11:06:29.076Z,56.60
2022-12-11T11:08:59.083Z,66.70
2022-12-11T11:11:29.863Z,63.90
2022-12-11T11:14:13.308Z,55.20
2022-12-11T11:16:44.078Z,57.97
2022-12-11T11:19:25.525Z,57.87
2022-12-11T11:21:57.320Z,55.47
2022-12-11T11:24:41.746Z,55.17
2022-12-11T11:27:15.655Z,50.97
2022-12-11T11:29:47.673Z,47.53
2022-12-11T11:32:21.998Z,53.57
2022-12-11T11:34:51.521Z,45.67
2022-12-11T11:37:32.925Z,43.83
2022-12-11T11:40:09.392Z,47.57
2022-12-11T11:42:46.617Z,53.20
2022-12-11T11:45:18.721Z,71.53
2022-12-11T11:47:59.611Z,68.33
2022-12-11T11:50:34.848Z,66.80
2022-12-11T11:53:10.617Z,66.77
2022-12-11T11:55:45.159Z,62.77
2022-12-11T11:58:17.744Z,60.73
2022-12-11T12:00:46.187Z,52.60
2022-12-11T12:03:17.312Z,59.20
2022-12-11T12:05:53.196Z,55.47
2022-12-11T12:08:35.657Z,55.83
2022-12-11T12:11:10.358Z,56.63
2022-12-11T12:13:50.405Z,55.20
2022-12-11T12:19:27.766Z,58.33
2022-12-11T12:21:58.247Z,59.87
2022-12-11T12:24:36.916Z,56.93
2022-12-11T12:27:49.952Z,54.60
2022-12-11T12:30:05.911Z,55.13
2022-12-11T12:32:42.138Z,50.53
2022-12-11T12:35:31.108Z,51.03
2022-12-11T12:38:11.752Z,59.57
2022-12-11T12:40:49.588Z,52.27
2022-12-11T12:43:44.843Z,49.63
2022-12-11T12:46:22.047Z,52.03
2022-12-11T12:48:52.232Z,47.33
2022-12-11T12:51:20.634Z,50.40
2022-12-11T12:53:54.625Z,44.37
2022-12-11T12:56:23.679Z,51.90
2022-12-11T12:58:51.785Z,48.73
2022-12-11T13:01:22.998Z,49.23
2022-12-11T13:03:55.739Z,47.53
2022-12-11T13:06:36.876Z,45.97
2022-12-11T13:09:16.982Z,44.50
2022-12-11T13:11:45.661Z,45.20
2022-12-11T13:14:28.795Z,42.60
2022-12-11T13:17:09.146Z,46.37
2022-12-11T13:22:25.446Z,47.50
2022-12-11T13:25:01.789Z,43.73
2022-12-11T13:27:39.920Z,45.63
2022-12-11T13:30:22.078Z,50.70
2022-12-11T13:33:01.991Z,55.53
2022-12-11T13:35:31.492Z,47.20
2022-12-11T13:49:24.470Z,40.27
2022-12-11T13:51:55.220Z,38.63
